createdAt,value
2022-08-22T00:00:15.806Z,16.19
2022-08-22T00:02:49.935Z,16.09
2022-08-22T00:02:57.730Z,16.16
2022-08-22T00:03:01.248Z,16.06
2022-08-22T00:03:11.649Z,16.22
2022-08-22T00:03:25.861Z,16.18
2022-08-22T00:06:10.582Z,16.15
2022-08-22T00:09:00.242Z,16.13
2022-08-22T00:11:54.935Z,16.11
2022-08-22T00:14:40.577Z,16.09
2022-08-22T00:17:44.223Z,16.10
2022-08-22T00:20:30.601Z,16.09
2022-08-22T00:23:10.244Z,16.08
2022-08-22T00:26:03.896Z,16.05
2022-08-22T00:28:38.872Z,16.03
2022-08-22T00:31:17.793Z,16.03
2022-08-22T00:33:53.235Z,16.02
2022-08-22T00:36:43.831Z,16.01
2022-08-22T00:39:27.221Z,16.01
2022-08-22T00:42:29.538Z,16.01
2022-08-22T00:45:11.597Z,16.01
2022-08-22T00:47:58.383Z,16.01
2022-08-22T00:50:38.593Z,16.02
2022-08-22T00:53:47.631Z,16.02
2022-08-22T00:56:28.264Z,16.03
2022-08-22T00:59:23.130Z,16.04
2022-08-22T01:01:52.469Z,16.06
2022-08-22T01:04:29.072Z,16.09
2022-08-22T01:07:03.480Z,16.10
2022-08-22T01:09:47.218Z,16.11
2022-08-22T01:12:42.756Z,16.12
2022-08-22T01:15:15.714Z,16.15
2022-08-22T01:18:05.077Z,16.16
2022-08-22T01:20:54.792Z,16.18
2022-08-22T01:24:09.115Z,16.20
2022-08-22T01:26:56.972Z,16.21
2022-08-22T01:29:56.162Z,16.21
2022-08-22T01:33:05.693Z,16.20
2022-08-22T01:35:42.980Z,16.19
2022-08-22T01:38:34.603Z,16.20
2022-08-22T01:41:35.428Z,16.22
2022-08-22T01:44:23.774Z,16.24
2022-08-22T01:46:58.294Z,16.27
2022-08-22T01:49:35.595Z,16.28
2022-08-22T01:52:34.325Z,16.29
2022-08-22T01:55:11.585Z,16.29
2022-08-22T01:57:50.416Z,16.30
2022-08-22T02:00:34.551Z,16.31
2022-08-22T02:03:26.677Z,16.32
2022-08-22T02:06:05.078Z,16.29
2022-08-22T02:08:45.135Z,16.29
2022-08-22T02:11:35.230Z,16.28
2022-08-22T02:14:32.943Z,16.28
2022-08-22T02:17:32.709Z,16.27
2022-08-22T02:20:25.656Z,16.28
2022-08-22T02:23:27.825Z,16.28
2022-08-22T02:25:59.403Z,16.25
2022-08-22T02:28:56.968Z,16.27
2022-08-22T02:31:38.118Z,16.29
2022-08-22T02:34:20.732Z,16.31
2022-08-22T02:36:58.097Z,16.36
2022-08-22T02:39:34.914Z,16.38
2022-08-22T02:42:17.748Z,16.41
2022-08-22T02:45:05.612Z,16.42
2022-08-22T02:47:47.032Z,16.42
2022-08-22T02:50:38.146Z,16.43
2022-08-22T02:53:17.726Z,16.43
2022-08-22T02:56:40.015Z,16.43
2022-08-22T02:59:32.523Z,16.42
2022-08-22T03:02:27.825Z,16.42
2022-08-22T03:05:01.089Z,16.41
2022-08-22T03:07:43.806Z,16.42
2022-08-22T03:10:23.466Z,16.42
2022-08-22T03:13:09.985Z,16.42
2022-08-22T03:15:58.161Z,16.43
2022-08-22T03:18:41.593Z,16.45
2022-08-22T03:21:30.967Z,16.46
2022-08-22T03:24:09.864Z,16.48
2022-08-22T03:27:32.724Z,16.49
2022-08-22T03:30:08.027Z,16.50
2022-08-22T03:32:54.758Z,16.50
2022-08-22T03:35:52.978Z,16.52
2022-08-22T03:38:26.552Z,16.52
2022-08-22T03:41:27.506Z,16.51
2022-08-22T03:44:22.392Z,16.51
2022-08-22T03:47:17.664Z,16.52
2022-08-22T03:50:24.478Z,16.54
2022-08-22T03:53:30.556Z,16.56
2022-08-22T03:56:42.709Z,16.59
2022-08-22T03:59:29.181Z,16.62
2022-08-22T04:02:03.654Z,16.63
2022-08-22T04:05:19.216Z,16.63
2022-08-22T04:08:04.539Z,16.67
2022-08-22T04:10:59.299Z,16.69
2022-08-22T04:13:53.356Z,16.69
2022-08-22T04:16:30.436Z,16.71
2022-08-22T04:18:58.569Z,16.73
2022-08-22T04:21:35.692Z,16.73
2022-08-22T04:24:34.330Z,16.75
2022-08-22T04:27:11.106Z,16.75
2022-08-22T04:29:47.010Z,16.77
2022-08-22T04:32:53.564Z,16.77
2022-08-22T04:35:41.659Z,16.78
2022-08-22T04:38:37.273Z,16.79
2022-08-22T04:41:25.663Z,16.79
2022-08-22T04:43:58.930Z,16.79
2022-08-22T04:46:39.596Z,16.81
2022-08-22T04:49:12.280Z,16.82
2022-08-22T04:52:13.214Z,16.85
2022-08-22T04:54:47.024Z,16.87
2022-08-22T04:57:41.782Z,16.91
2022-08-22T05:00:12.595Z,16.97
2022-08-22T05:02:49.733Z,17.01
2022-08-22T05:05:25.895Z,17.04
2022-08-22T05:07:58.996Z,17.06
2022-08-22T05:10:42.734Z,17.06
2022-08-22T05:13:18.879Z,17.06
2022-08-22T05:15:52.105Z,17.06
2022-08-22T05:18:29.955Z,17.06
2022-08-22T05:21:05.419Z,17.06
2022-08-22T05:23:42.640Z,17.06
2022-08-22T05:26:15.638Z,17.07
2022-08-22T05:28:52.900Z,17.09
2022-08-22T05:31:30.507Z,17.09
2022-08-22T05:34:06.419Z,17.10
2022-08-22T05:36:43.210Z,17.12
2022-08-22T05:39:25.321Z,17.15
2022-08-22T05:41:55.923Z,17.18
2022-08-22T05:44:28.300Z,17.21
2022-08-22T05:47:00.693Z,17.23
2022-08-22T05:49:40.819Z,17.25
2022-08-22T05:52:42.635Z,17.27
2022-08-22T05:55:43.499Z,17.30
2022-08-22T05:58:40.059Z,17.31
2022-08-22T06:01:20.745Z,17.34
2022-08-22T06:04:12.041Z,17.35
2022-08-22T06:06:55.902Z,17.37
2022-08-22T06:09:35.454Z,17.40
2022-08-22T06:12:21.649Z,17.42
2022-08-22T06:14:58.698Z,17.47
2022-08-22T06:17:39.262Z,17.50
2022-08-22T06:20:09.891Z,17.53
2022-08-22T06:22:45.409Z,17.56
2022-08-22T06:25:25.163Z,17.61
2022-08-22T06:27:54.917Z,17.65
2022-08-22T06:30:26.648Z,17.70
2022-08-22T06:33:01.617Z,17.74
2022-08-22T06:36:02.465Z,17.79
2022-08-22T06:38:35.738Z,17.85
2022-08-22T06:41:08.831Z,17.90
2022-08-22T06:43:39.690Z,17.94
2022-08-22T06:46:09.237Z,18.00
2022-08-22T06:48:37.946Z,18.06
2022-08-22T06:51:09.050Z,18.11
2022-08-22T06:53:47.817Z,18.16
2022-08-22T06:56:26.714Z,18.20
2022-08-22T06:59:02.973Z,18.23
2022-08-22T07:01:37.872Z,18.25
2022-08-22T07:04:10.125Z,18.29
2022-08-22T07:06:50.435Z,18.33
2022-08-22T07:09:29.674Z,18.39
2022-08-22T07:12:03.048Z,18.45
2022-08-22T07:14:53.759Z,18.50
2022-08-22T07:17:26.138Z,18.57
2022-08-22T07:20:05.209Z,18.62
2022-08-22T07:22:36.761Z,18.68
2022-08-22T07:25:08.392Z,18.74
2022-08-22T07:27:55.072Z,18.81
2022-08-22T07:30:28.142Z,18.87
2022-08-22T07:33:23.606Z,18.93
2022-08-22T07:35:55.980Z,19.00
2022-08-22T07:38:46.742Z,19.07
2022-08-22T07:41:17.269Z,19.14
2022-08-22T07:43:50.616Z,19.21
2022-08-22T07:46:24.827Z,19.28
2022-08-22T07:49:09.241Z,19.38
2022-08-22T07:51:43.479Z,19.56
2022-08-22T07:54:22.095Z,19.71
2022-08-22T07:57:03.463Z,19.92
2022-08-22T07:59:36.139Z,20.20
2022-08-22T08:02:09.465Z,20.29
2022-08-22T08:04:41.968Z,20.31
2022-08-22T08:07:16.926Z,20.29
2022-08-22T08:09:52.398Z,20.28
2022-08-22T08:12:31.536Z,20.29
2022-08-22T08:15:04.280Z,20.32
2022-08-22T08:17:35.552Z,20.35
2022-08-22T08:20:11.990Z,20.40
2022-08-22T08:22:44.056Z,20.44
2022-08-22T08:25:20.447Z,20.51
2022-08-22T08:28:09.896Z,20.58
2022-08-22T08:30:59.621Z,20.68
2022-08-22T08:33:29.455Z,20.75
2022-08-22T08:36:05.544Z,20.79
2022-08-22T08:38:53.579Z,20.82
2022-08-22T08:41:34.964Z,20.85
2022-08-22T08:44:03.448Z,20.89
2022-08-22T08:47:09.241Z,20.91
2022-08-22T08:49:52.221Z,20.94
2022-08-22T08:52:32.013Z,20.96
2022-08-22T08:55:25.059Z,20.96
2022-08-22T08:58:17.665Z,20.98
2022-08-22T09:00:50.467Z,21.00
2022-08-22T09:03:35.513Z,21.03
2022-08-22T09:06:42.489Z,21.03
2022-08-22T09:09:38.168Z,21.02
2022-08-22T09:12:16.217Z,21.02
2022-08-22T09:14:50.124Z,21.00
2022-08-22T09:18:11.646Z,20.98
2022-08-22T09:20:47.688Z,20.97
2022-08-22T09:23:31.906Z,20.97
2022-08-22T09:26:14.611Z,20.96
2022-08-22T09:28:59.250Z,20.93
2022-08-22T09:32:00.117Z,20.96
2022-08-22T09:34:45.084Z,20.98
2022-08-22T09:37:49.960Z,21.01
2022-08-22T09:40:47.219Z,21.06
2022-08-22T09:43:44.190Z,21.09
2022-08-22T09:46:31.644Z,21.15
2022-08-22T09:49:20.045Z,21.23
2022-08-22T09:52:14.375Z,21.31
2022-08-22T09:54:54.882Z,21.40
2022-08-22T09:57:26.965Z,21.47
2022-08-22T10:00:05.642Z,21.52
2022-08-22T10:02:43.665Z,21.59
2022-08-22T10:05:40.981Z,21.72
2022-08-22T10:08:30.612Z,21.79
2022-08-22T10:11:19.637Z,21.83
2022-08-22T10:14:09.953Z,21.86
2022-08-22T10:17:02.603Z,21.86
2022-08-22T10:19:39.488Z,21.90
2022-08-22T10:22:23.326Z,21.96
2022-08-22T10:25:41.657Z,22.01
2022-08-22T10:28:19.403Z,22.03
2022-08-22T10:31:02.291Z,22.04
2022-08-22T10:33:33.173Z,22.03
2022-08-22T10:36:11.944Z,22.01
2022-08-22T10:38:48.342Z,21.97
2022-08-22T10:41:33.274Z,21.95
2022-08-22T10:44:19.839Z,21.93
2022-08-22T10:46:59.116Z,21.87
2022-08-22T10:49:37.917Z,21.82
2022-08-22T10:52:16.045Z,21.76
2022-08-22T10:54:52.722Z,21.72
2022-08-22T10:57:55.083Z,21.70
2022-08-22T11:00:46.475Z,21.67
2022-08-22T11:03:39.772Z,21.65
2022-08-22T11:06:46.603Z,21.65
2022-08-22T11:09:28.272Z,21.61
2022-08-22T11:12:35.290Z,21.60
2022-08-22T11:15:14.243Z,21.59
2022-08-22T11:18:21.800Z,21.58
2022-08-22T11:21:02.927Z,21.57
2022-08-22T11:24:34.640Z,21.56
2022-08-22T11:27:14.830Z,21.53
2022-08-22T11:29:56.930Z,21.53
2022-08-22T11:33:04.705Z,21.54
2022-08-22T11:35:43.198Z,21.58
2022-08-22T11:38:32.574Z,21.72
2022-08-22T11:41:22.101Z,21.94
2022-08-22T11:44:06.003Z,22.05
2022-08-22T11:46:43.664Z,22.11
2022-08-22T11:49:35.861Z,22.12
2022-08-22T11:52:13.148Z,22.15
2022-08-22T11:55:08.075Z,22.17
2022-08-22T11:58:07.040Z,22.16
2022-08-22T12:00:56.594Z,22.25
2022-08-22T12:03:38.782Z,22.35
2022-08-22T12:06:13.337Z,22.42
2022-08-22T12:08:51.927Z,22.47
2022-08-22T12:11:25.610Z,22.50
2022-08-22T12:14:06.638Z,22.53
2022-08-22T12:16:48.372Z,22.57
2022-08-22T12:20:05.595Z,22.57
2022-08-22T12:23:09.052Z,22.58
2022-08-22T12:26:26.065Z,22.52
2022-08-22T12:29:39.618Z,22.47
2022-08-22T12:32:34.022Z,22.42
2022-08-22T12:35:20.207Z,22.37
2022-08-22T12:38:28.968Z,22.35
2022-08-22T12:41:35.033Z,22.35
2022-08-22T12:44:33.389Z,22.35
2022-08-22T12:47:09.794Z,22.36
2022-08-22T12:49:52.876Z,22.38
2022-08-22T12:52:39.645Z,22.44
2022-08-22T12:55:19.980Z,22.47
2022-08-22T12:58:38.962Z,22.51
2022-08-22T13:01:10.720Z,22.59
2022-08-22T13:03:53.690Z,22.62
2022-08-22T13:06:35.751Z,22.63
2022-08-22T13:09:35.868Z,22.60
2022-08-22T13:12:22.984Z,22.55
2022-08-22T13:14:55.668Z,22.50
2022-08-22T13:17:25.885Z,22.50
2022-08-22T13:20:08.919Z,22.53
2022-08-22T13:22:45.617Z,22.49
2022-08-22T13:25:26.480Z,22.47
2022-08-22T13:27:59.222Z,22.46
2022-08-22T13:30:38.017Z,22.44
2022-08-22T13:33:11.376Z,22.45
2022-08-22T13:35:51.894Z,22.40
2022-08-22T13:38:26.899Z,22.34
2022-08-22T13:40:58.238Z,22.35
2022-08-22T13:43:33.987Z,22.33
2022-08-22T13:46:11.030Z,22.26
2022-08-22T13:48:50.699Z,22.17
2022-08-22T13:51:31.659Z,22.20
2022-08-22T13:54:25.705Z,22.28
2022-08-22T13:57:11.798Z,22.26
2022-08-22T13:59:50.828Z,22.28
2022-08-22T14:02:34.340Z,22.37
2022-08-22T14:05:11.377Z,22.46
2022-08-22T14:07:53.468Z,22.56
2022-08-22T14:10:34.160Z,22.55
2022-08-22T14:13:03.022Z,22.54
2022-08-22T14:15:46.075Z,22.40
2022-08-22T14:18:30.319Z,22.35
2022-08-22T14:21:27.726Z,22.29
2022-08-22T14:24:00.716Z,22.34
2022-08-22T14:26:37.260Z,22.36
2022-08-22T14:29:18.670Z,22.30
2022-08-22T14:32:03.503Z,22.20
2022-08-22T14:34:36.317Z,22.17
2022-08-22T14:37:15.132Z,22.12
2022-08-22T14:39:54.643Z,22.07
2022-08-22T14:42:27.390Z,22.02
2022-08-22T14:45:08.526Z,21.97
2022-08-22T14:48:14.069Z,21.93
2022-08-22T14:50:50.437Z,22.00
2022-08-22T14:53:22.241Z,22.06
2022-08-22T14:56:14.989Z,22.07
2022-08-22T14:59:08.460Z,22.02
2022-08-22T15:01:55.633Z,22.03
2022-08-22T15:04:34.655Z,22.01
2022-08-22T15:07:03.340Z,22.01
2022-08-22T15:09:52.135Z,21.99
2022-08-22T15:12:32.285Z,21.88
2022-08-22T15:15:04.519Z,21.82
2022-08-22T15:17:32.657Z,21.75
2022-08-22T15:20:45.414Z,21.71
2022-08-22T15:23:23.606Z,21.69
2022-08-22T15:26:03.592Z,21.66
2022-08-22T15:28:49.793Z,21.61
2022-08-22T15:31:22.363Z,21.55
2022-08-22T15:33:51.669Z,21.52
2022-08-22T15:36:26.783Z,21.49
2022-08-22T15:39:16.914Z,21.47
2022-08-22T15:41:48.688Z,21.38
2022-08-22T15:44:32.255Z,21.40
2022-08-22T15:47:10.859Z,21.45
2022-08-22T15:50:00.034Z,21.48
2022-08-22T15:52:35.993Z,21.57
2022-08-22T15:55:18.051Z,21.50
2022-08-22T15:58:21.428Z,21.53
2022-08-22T16:01:19.215Z,21.42
2022-08-22T16:04:00.121Z,21.34
2022-08-22T16:06:49.231Z,21.30
2022-08-22T16:09:43.544Z,21.24
2022-08-22T16:12:25.672Z,21.19
2022-08-22T16:14:54.022Z,21.15
2022-08-22T16:17:30.928Z,21.11
2022-08-22T16:20:07.896Z,21.20
2022-08-22T16:22:56.765Z,21.31
2022-08-22T16:25:49.510Z,21.23
2022-08-22T16:28:57.733Z,21.10
2022-08-22T16:31:28.901Z,20.93
2022-08-22T16:34:18.958Z,20.82
2022-08-22T16:37:05.659Z,20.71
2022-08-22T16:40:01.905Z,20.63
2022-08-22T16:42:41.130Z,20.54
2022-08-22T16:45:09.050Z,20.47
2022-08-22T16:48:02.250Z,20.43
2022-08-22T16:50:38.347Z,20.38
2022-08-22T16:53:21.532Z,20.34
2022-08-22T16:56:31.528Z,20.30
2022-08-22T16:59:22.893Z,20.24
2022-08-22T17:01:57.265Z,20.18
2022-08-22T17:04:36.375Z,20.13
2022-08-22T17:07:10.820Z,20.10
2022-08-22T17:09:44.698Z,20.07
2022-08-22T17:12:12.745Z,20.02
2022-08-22T17:14:52.894Z,19.98
2022-08-22T17:17:21.718Z,19.93
2022-08-22T17:19:55.470Z,19.89
2022-08-22T17:22:58.479Z,19.86
2022-08-22T17:25:54.578Z,19.81
2022-08-22T17:28:34.339Z,19.77
2022-08-22T17:31:15.395Z,19.72
2022-08-22T17:33:52.717Z,19.68
2022-08-22T17:37:08.360Z,19.65
2022-08-22T17:40:21.840Z,19.59
2022-08-22T17:43:27.174Z,19.54
2022-08-22T17:46:28.978Z,19.50
2022-08-22T17:49:09.500Z,19.45
2022-08-22T17:51:55.182Z,19.41
2022-08-22T17:54:35.847Z,19.38
2022-08-22T17:57:08.673Z,19.36
2022-08-22T17:59:59.944Z,19.33
2022-08-22T18:02:35.186Z,19.29
2022-08-22T18:05:07.968Z,19.26
2022-08-22T18:07:45.257Z,19.24
2022-08-22T18:10:58.180Z,19.21
2022-08-22T18:13:52.967Z,19.18
2022-08-22T18:16:36.064Z,19.16
2022-08-22T18:19:18.229Z,19.14
2022-08-22T18:21:51.954Z,19.12
2022-08-22T18:24:32.630Z,19.11
2022-08-22T18:27:39.090Z,19.08
2022-08-22T18:30:25.851Z,19.06
2022-08-22T18:33:02.120Z,19.01
2022-08-22T18:35:54.518Z,18.98
2022-08-22T18:38:31.523Z,18.95
2022-08-22T18:41:16.297Z,18.94
2022-08-22T18:43:49.152Z,18.91
2022-08-22T18:46:38.716Z,18.87
2022-08-22T18:49:30.065Z,18.85
2022-08-22T18:52:13.913Z,18.80
2022-08-22T18:55:03.736Z,18.75
2022-08-22T18:57:55.852Z,18.71
2022-08-22T19:00:46.356Z,18.68
2022-08-22T19:03:26.566Z,18.66
2022-08-22T19:06:18.900Z,18.64
2022-08-22T19:09:11.034Z,18.65
2022-08-22T19:12:09.827Z,18.65
2022-08-22T19:14:59.921Z,18.66
2022-08-22T19:17:43.138Z,18.67
2022-08-22T19:20:45.089Z,18.67
2022-08-22T19:23:32.018Z,18.70
2022-08-22T19:26:25.027Z,18.71
2022-08-22T19:28:58.154Z,18.70
2022-08-22T19:31:44.461Z,18.72
2022-08-22T19:34:12.528Z,18.73
2022-08-22T19:36:41.158Z,18.74
2022-08-22T19:39:11.330Z,18.75
2022-08-22T19:41:57.042Z,18.77
2022-08-22T19:44:35.627Z,18.79
2022-08-22T19:47:27.055Z,18.80
2022-08-22T19:50:18.002Z,18.82
2022-08-22T19:53:18.695Z,18.83
2022-08-22T19:56:23.161Z,18.83
2022-08-22T19:59:06.893Z,18.84
2022-08-22T20:01:37.990Z,18.85
2022-08-22T20:04:29.721Z,18.85
2022-08-22T20:07:14.682Z,18.86
2022-08-22T20:09:46.030Z,18.88
2022-08-22T20:12:46.398Z,18.89
2022-08-22T20:15:25.282Z,18.90
2022-08-22T20:20:58.493Z,18.92
2022-08-22T20:23:32.269Z,18.93
2022-08-22T20:26:00.829Z,18.94
2022-08-22T20:28:52.445Z,18.94
2022-08-22T20:31:24.911Z,18.94
2022-08-22T20:33:59.088Z,18.94
2022-08-22T20:36:28.099Z,18.95
2022-08-22T20:39:21.340Z,18.94
2022-08-22T20:42:00.779Z,18.94
2022-08-22T20:44:43.161Z,18.93
2022-08-22T20:47:21.305Z,18.92
2022-08-22T20:50:00.829Z,18.91
2022-08-22T20:52:35.618Z,18.90
2022-08-22T20:55:21.341Z,18.88
2022-08-22T20:57:56.245Z,18.87
2022-08-22T21:00:33.930Z,18.84
2022-08-22T21:03:08.047Z,18.83
2022-08-22T21:05:42.571Z,18.82
2022-08-22T21:08:24.866Z,18.81
2022-08-22T21:11:22.571Z,18.78
2022-08-22T21:13:52.281Z,18.74
2022-08-22T21:16:31.628Z,18.70
2022-08-22T21:19:04.115Z,18.66
2022-08-22T21:21:34.637Z,18.63
2022-08-22T21:24:07.864Z,18.60
2022-08-22T21:26:42.124Z,18.58
2022-08-22T21:29:13.472Z,18.57
2022-08-22T21:31:52.942Z,18.55
2022-08-22T21:34:28.247Z,18.55
2022-08-22T21:37:02.061Z,18.55
2022-08-22T21:39:37.830Z,18.55
2022-08-22T21:42:05.819Z,18.54
2022-08-22T21:44:37.121Z,18.53
2022-08-22T21:47:30.714Z,18.51
2022-08-22T21:50:13.954Z,18.47
2022-08-22T21:52:54.066Z,18.42
2022-08-22T21:55:22.136Z,18.37
2022-08-22T21:58:05.263Z,18.32
2022-08-22T22:00:53.267Z,18.30
2022-08-22T22:03:28.302Z,18.29
2022-08-22T22:06:01.932Z,18.28
2022-08-22T22:08:31.490Z,18.29
2022-08-22T22:11:03.500Z,18.29
2022-08-22T22:13:34.339Z,18.29
2022-08-22T22:16:03.150Z,18.27
2022-08-22T22:18:32.897Z,18.26
2022-08-22T22:21:01.340Z,18.24
2022-08-22T22:23:29.953Z,18.24
2022-08-22T22:26:02.886Z,18.25
2022-08-22T22:28:40.124Z,18.26
2022-08-22T22:31:08.810Z,18.27
2022-08-22T22:33:40.424Z,18.27
2022-08-22T22:36:13.488Z,18.30
2022-08-22T22:38:42.072Z,18.32
2022-08-22T22:41:10.703Z,18.33
2022-08-22T22:43:38.990Z,18.37
2022-08-22T22:46:06.985Z,18.40
2022-08-22T22:48:35.024Z,18.45
2022-08-22T22:51:08.988Z,18.49
2022-08-22T22:53:40.217Z,18.53
2022-08-22T22:56:12.913Z,18.57
2022-08-22T22:58:42.351Z,18.60
2022-08-22T23:01:13.175Z,18.62
2022-08-22T23:03:42.505Z,18.62
2022-08-22T23:06:16.767Z,18.63
2022-08-22T23:08:45.019Z,18.62
2022-08-22T23:11:18.423Z,18.59
2022-08-22T23:13:48.504Z,18.59
2022-08-22T23:16:26.335Z,18.58
2022-08-22T23:18:55.695Z,18.57
2022-08-22T23:21:27.941Z,18.56
2022-08-22T23:23:58.052Z,18.56
2022-08-22T23:26:27.065Z,18.56
2022-08-22T23:28:55.604Z,18.58
2022-08-22T23:31:32.655Z,18.59
2022-08-22T23:34:07.415Z,18.60
2022-08-22T23:36:36.641Z,18.61
2022-08-22T23:39:06.323Z,18.62
2022-08-22T23:41:36.500Z,18.63
2022-08-22T23:44:07.190Z,18.66
2022-08-22T23:46:37.301Z,18.68
2022-08-22T23:49:06.568Z,18.69
2022-08-22T23:51:35.120Z,18.71
2022-08-22T23:54:04.364Z,18.72
2022-08-22T23:56:39.020Z,18.74
2022-08-22T23:59:11.726Z,18.75
